Aérodrome :
LOGIN :

S'inscrire | Disclaimer

   EN    FR    IT 

 










Légende :    VFR   VFR Marginal   IFR   IFR Intensif   IFR Très Intensif
Visi : 
Plafond : 
>= 8 km
>= 3000ft
5 à 8 km
1000 à 3000 ft
1500m à 5 km
500 à 1000 ft
800 à 1500m
200 à 500 ft
< 800m
< 200 ft
Symboles :   Orages  Brouillard  Fortes neiges  Fortes précipitations  Vent > 20 kt
SIGMETs :   Divers  Orages  Givrage  Turbulence  Onde Orograph.  Cendres Volcan.






- Altitude de l'aérodrome : 163 ft
- Code IATA : IST


LTBA - Ataturk

DERNIER METAR :
  • 301020Z 22009KT CAVOK 13/08 Q1013 NOSIG RMK RWY17L 23010KT RWY05 24008KT RWY23 23011KT

METARs EXPIRÉS :
  • 300950Z 20010KT CAVOK 13/09 Q1013 NOSIG RMK RWY17L 21011KT RWY05 22009KT RWY23 22011KT
  • 300920Z 20009KT CAVOK 13/09 Q1013 NOSIG RMK RWY17L 20011KT RWY05 22008KT RWY23 23010KT
  • 300850Z 20010KT CAVOK 13/09 Q1013 NOSIG
  • 300820Z 21009KT CAVOK 12/09 Q1013 NOSIG RMK RWY17L 21010KT RWY05 23008KT RWY23 23011KT
  • 300750Z 21011KT CAVOK 12/08 Q1013 NOSIG

TAF TAF LTBA
Valide du 30 à 06h jusqu'au 31 à 12h UTC


300440Z 3006/3112 VRB02KT CAVOK
TEMPO 3010/3012 24016KT
BECMG 3107/3111 03022G32KT SCT035



MET'MAP, la Météo Aéronautique d'un coup d'oeil ! - Copyright ORBIFLY Décembre 2007 - Disclaimer

ORBIFLY MET'MAP TEAM :

Programmation & Développement : Alexandra Zaïnal
Sur une idée originale de : Baudouin d'Aumeries
Assistance à la programmation : Marc-Olivier Méhu
Soutien technique & logistique : Manuel Goepfert

Contact : metmap@orbifly.com




SOURCES & CREDITS :

   NOAA